Time;durP1;ratioP1;P1;durP2;ratioP2;P2;SDS_P1;SDS_P2;PMS_P1;PMS_P2;Temp;Humidity;BMP_temperature;BMP_pressure;BME280_temperature;BME280_humidity;BME280_pressure;Samples;Min_cycle;Max_cycle;Signal;HPM_P1;HPM_P2
2022/01/11 00:00:13;;;;;;;17.50;11.87;;;3.50;99.90;;;;;;5034410;28;20230;-77
2022/01/11 00:02:44;;;;;;;20.83;14.17;;;3.40;99.90;;;;;;5027566;28;20206;-77
2022/01/11 00:05:19;;;;;;;19.97;12.27;;;3.20;99.90;;;;;;5039919;28;20208;-77
2022/01/11 00:11:13;;;;;;;21.50;12.60;;;3.00;99.90;;;;;;5029586;28;20209;-77
2022/01/11 00:13:42;;;;;;;16.37;12.27;;;3.10;99.90;;;;;;5025613;28;20206;-77
2022/01/11 00:16:14;;;;;;;20.00;13.07;;;3.00;99.90;;;;;;5033375;28;20210;-77
2022/01/11 00:18:41;;;;;;;17.03;12.63;;;2.80;99.90;;;;;;5033064;28;20191;-77
2022/01/11 00:21:13;;;;;;;20.07;14.63;;;2.90;99.90;;;;;;5029087;28;20223;-77
2022/01/11 00:26:25;;;;;;;19.17;13.33;;;2.80;99.90;;;;;;5033102;28;20191;-77
2022/01/11 00:28:53;;;;;;;23.97;14.67;;;2.70;99.90;;;;;;5020472;28;20207;-77
2022/01/11 00:31:27;;;;;;;20.90;14.90;;;2.70;99.90;;;;;;5042202;28;20224;-77
2022/01/11 00:33:55;;;;;;;23.00;16.03;;;2.70;99.90;;;;;;5023192;28;20197;-77
2022/01/11 00:36:29;;;;;;;23.07;15.20;;;2.70;99.90;;;;;;5041490;28;20227;-77
2022/01/11 00:38:56;;;;;;;24.63;15.53;;;2.60;99.90;;;;;;5029275;28;20205;-77
2022/01/11 00:41:24;;;;;;;30.07;17.80;;;2.50;99.90;;;;;;5035229;28;20692;-77
2022/01/11 00:43:53;;;;;;;26.50;16.50;;;2.40;99.90;;;;;;5049319;28;20211;-77
2022/01/11 00:46:20;;;;;;;24.37;15.63;;;2.30;99.90;;;;;;5042486;28;20692;-77
2022/01/11 00:48:49;;;;;;;21.60;15.17;;;2.30;99.90;;;;;;5031254;28;20195;-77
2022/01/11 00:51:16;;;;;;;22.20;15.23;;;2.20;99.90;;;;;;5029599;28;20230;-77
2022/01/11 00:53:44;;;;;;;19.50;15.00;;;2.10;99.90;;;;;;5023622;28;20200;-77
2022/01/11 00:56:11;;;;;;;22.67;15.13;;;2.20;99.90;;;;;;5033068;28;20214;-77
2022/01/11 00:58:39;;;;;;;23.83;14.73;;;2.10;99.90;;;;;;5030757;28;20198;-77
2022/01/11 01:01:12;;;;;;;22.27;14.93;;;2.20;99.90;;;;;;5032781;28;20211;-78
2022/01/11 01:03:40;;;;;;;21.73;14.53;;;2.20;99.90;;;;;;5039933;28;20207;-77
2022/01/11 01:06:09;;;;;;;20.50;14.67;;;2.20;99.90;;;;;;5024007;28;20204;-77
2022/01/11 01:08:36;;;;;;;20.10;12.63;;;2.20;99.90;;;;;;5035886;28;20200;-77
2022/01/11 01:11:06;;;;;;;18.13;10.87;;;2.00;99.90;;;;;;5029744;28;20215;-77
2022/01/11 01:13:39;;;;;;;18.10;12.23;;;2.30;99.90;;;;;;5026323;28;20670;-77
2022/01/11 01:16:09;;;;;;;16.50;11.90;;;2.40;99.90;;;;;;5029295;28;20199;-77
2022/01/11 01:18:46;;;;;;;22.10;13.50;;;2.50;99.90;;;;;;5048488;28;20207;-77
2022/01/11 01:21:15;;;;;;;18.33;12.63;;;2.50;99.90;;;;;;5031730;28;20226;-77
2022/01/11 01:23:44;;;;;;;18.23;12.80;;;2.60;99.90;;;;;;5035528;28;20206;-77
2022/01/11 01:26:12;;;;;;;18.07;12.50;;;2.60;99.90;;;;;;5028490;28;20417;-77
2022/01/11 01:28:48;;;;;;;19.10;10.83;;;2.60;99.90;;;;;;5045120;28;20200;-76
2022/01/11 01:31:16;;;;;;;16.10;10.93;;;2.70;99.90;;;;;;5024191;28;20222;-77
2022/01/11 01:33:45;;;;;;;13.23;8.43;;;2.70;99.90;;;;;;5030421;28;20210;-77
2022/01/11 01:36:13;;;;;;;13.83;9.60;;;2.70;99.90;;;;;;5032070;28;20198;-77
2022/01/11 01:38:42;;;;;;;13.50;9.27;;;2.80;99.90;;;;;;5032705;28;20204;-77
2022/01/11 01:41:14;;;;;;;14.10;9.63;;;3.10;99.90;;;;;;5030921;28;20736;-77
2022/01/11 01:43:53;;;;;;;14.33;8.90;;;3.20;99.90;;;;;;5026954;28;20201;-77
2022/01/11 01:46:21;;;;;;;11.93;8.43;;;3.30;99.90;;;;;;5035012;28;20198;-77
2022/01/11 01:48:49;;;;;;;13.47;8.90;;;3.20;99.90;;;;;;5050490;28;20209;-77
2022/01/11 01:51:17;;;;;;;14.53;8.97;;;3.40;99.90;;;;;;5027546;28;20236;-77
2022/01/11 01:53:49;;;;;;;12.23;8.90;;;3.20;99.90;;;;;;5034119;28;20203;-77
2022/01/11 01:56:17;;;;;;;12.53;8.40;;;3.00;99.90;;;;;;5030303;28;20201;-77
2022/01/11 01:58:45;;;;;;;13.93;9.43;;;3.10;99.90;;;;;;5038373;28;20207;-77
2022/01/11 02:01:47;;;;;;;17.63;9.90;;;3.20;99.90;;;;;;5031406;28;20232;-77
2022/01/11 02:04:16;;;;;;;16.53;9.97;;;3.20;99.90;;;;;;5032744;28;20201;-77
2022/01/11 02:06:44;;;;;;;15.57;10.83;;;3.20;99.90;;;;;;5031225;28;20209;-77
2022/01/11 02:09:15;;;;;;;15.27;11.03;;;3.00;99.90;;;;;;5030672;28;20203;-77
2022/01/11 02:11:42;;;;;;;12.80;9.20;;;3.00;99.90;;;;;;5029936;28;20231;-77
2022/01/11 02:14:10;;;;;;;12.50;9.13;;;2.80;99.90;;;;;;5031759;28;20207;-77
2022/01/11 02:16:37;;;;;;;12.40;8.93;;;3.00;99.90;;;;;;5029435;28;20201;-77
2022/01/11 02:19:06;;;;;;;14.40;8.70;;;3.10;99.90;;;;;;5030299;28;20202;-77
2022/01/11 02:21:35;;;;;;;12.73;8.73;;;3.10;99.90;;;;;;5021304;28;20227;-77
2022/01/11 02:24:02;;;;;;;10.93;8.90;;;3.00;99.90;;;;;;5024869;28;20226;-77
2022/01/11 02:26:33;;;;;;;14.67;9.63;;;3.10;99.90;;;;;;5033735;28;20202;-78
2022/01/11 02:29:02;;;;;;;12.63;9.40;;;3.00;99.90;;;;;;5031896;28;20190;-77
2022/01/11 02:31:30;;;;;;;14.47;10.07;;;3.00;99.90;;;;;;5030377;28;20215;-77
2022/01/11 02:34:00;;;;;;;15.23;9.30;;;3.20;99.90;;;;;;5029870;28;20204;-77
2022/01/11 02:36:32;;;;;;;15.83;10.47;;;3.40;99.90;;;;;;5032088;28;20208;-78
2022/01/11 02:39:15;;;;;;;14.10;9.83;;;3.50;99.90;;;;;;5030351;28;20211;-77
2022/01/11 02:41:51;;;;;;;16.93;12.03;;;3.50;99.90;;;;;;5025725;28;20220;-77
2022/01/11 02:44:22;;;;;;;17.23;11.07;;;3.20;99.90;;;;;;5030566;28;20214;-77
2022/01/11 02:46:50;;;;;;;18.90;11.90;;;3.00;99.90;;;;;;5026641;28;20195;-77
2022/01/11 02:49:18;;;;;;;15.77;11.57;;;2.70;99.90;;;;;;5028365;28;20210;-77
2022/01/11 02:51:50;;;;;;;16.37;10.63;;;2.60;99.90;;;;;;5034162;28;20224;-77
2022/01/11 02:54:18;;;;;;;12.33;10.60;;;2.30;99.90;;;;;;5025095;28;20196;-77
2022/01/11 02:56:49;;;;;;;15.33;9.93;;;2.20;99.90;;;;;;5037556;28;20196;-77
2022/01/11 02:59:16;;;;;;;13.80;9.93;;;2.20;99.90;;;;;;5028258;28;20206;-77
2022/01/11 03:01:43;;;;;;;11.83;8.90;;;2.10;99.90;;;;;;5035216;28;20230;-77
2022/01/11 03:04:11;;;;;;;13.30;9.17;;;2.10;99.90;;;;;;5023489;28;20208;-77
2022/01/11 03:06:38;;;;;;;15.50;9.03;;;2.10;99.90;;;;;;5030432;28;20564;-77
2022/01/11 03:09:06;;;;;;;14.80;10.33;;;2.20;99.90;;;;;;5030623;28;20226;-77
2022/01/11 03:11:35;;;;;;;16.30;11.33;;;2.20;99.90;;;;;;5027085;28;20227;-77
2022/01/11 03:14:04;;;;;;;12.73;9.97;;;2.20;99.90;;;;;;5025273;28;20198;-77
2022/01/11 03:16:32;;;;;;;17.10;10.10;;;2.20;99.90;;;;;;5030057;28;20208;-77
2022/01/11 03:19:01;;;;;;;13.20;9.37;;;2.10;99.90;;;;;;5030821;28;20221;-77
2022/01/11 03:21:29;;;;;;;12.30;9.20;;;2.00;99.90;;;;;;5023306;28;20226;-77
2022/01/11 03:23:57;;;;;;;13.53;10.13;;;2.00;99.90;;;;;;5031097;28;20196;-77
2022/01/11 03:26:25;;;;;;;13.33;10.07;;;2.10;99.90;;;;;;5023721;28;20199;-77
2022/01/11 03:28:53;;;;;;;14.60;9.77;;;1.80;99.90;;;;;;5030771;28;20545;-77
2022/01/11 03:31:23;;;;;;;14.83;10.07;;;1.50;99.90;;;;;;5033201;28;20223;-77
2022/01/11 03:33:52;;;;;;;13.10;9.80;;;1.50;99.90;;;;;;5027972;28;20548;-77
2022/01/11 03:36:20;;;;;;;13.47;10.03;;;1.60;99.90;;;;;;5030962;28;20196;-77
2022/01/11 03:38:49;;;;;;;13.87;9.60;;;1.60;99.90;;;;;;5048598;28;20210;-77
2022/01/11 03:41:16;;;;;;;12.43;8.57;;;1.70;99.90;;;;;;5033076;28;20234;-77
2022/01/11 03:43:44;;;;;;;13.03;8.67;;;1.60;99.90;;;;;;5034143;28;20199;-77
2022/01/11 03:46:24;;;;;;;14.13;9.50;;;1.60;99.90;;;;;;5025909;28;20207;-77
2022/01/11 03:48:51;;;;;;;14.73;9.20;;;1.70;99.90;;;;;;5036638;28;20192;-77
2022/01/11 03:51:18;;;;;;;12.50;9.07;;;1.80;99.90;;;;;;5032166;28;20249;-77
2022/01/11 03:53:56;;;;;;;13.60;8.27;;;1.80;99.90;;;;;;5029097;28;20195;-77
2022/01/11 03:56:26;;;;;;;12.50;8.27;;;1.90;99.90;;;;;;5033899;28;20206;-77
2022/01/11 03:59:01;;;;;;;11.83;7.40;;;2.10;99.90;;;;;;5031259;28;20214;-77
2022/01/11 04:01:30;;;;;;;10.13;7.27;;;2.30;99.90;;;;;;5025678;28;20212;-77
2022/01/11 04:03:58;;;;;;;10.73;7.40;;;2.60;99.90;;;;;;5015048;28;20206;-77
2022/01/11 04:06:26;;;;;;;10.63;7.53;;;2.70;99.90;;;;;;5033959;28;20203;-77
2022/01/11 04:08:53;;;;;;;14.60;7.83;;;2.60;99.90;;;;;;5034031;28;20195;-77
2022/01/11 04:11:21;;;;;;;10.43;7.27;;;2.60;99.90;;;;;;5033146;28;20218;-77
2022/01/11 04:13:49;;;;;;;12.80;8.63;;;2.60;99.90;;;;;;5033525;28;20198;-77
2022/01/11 04:16:17;;;;;;;12.10;7.43;;;2.70;99.90;;;;;;5043269;28;20202;-77
2022/01/11 04:18:46;;;;;;;12.50;8.10;;;2.80;99.90;;;;;;5037773;28;20218;-77
2022/01/11 04:21:54;;;;;;;12.90;8.80;;;2.90;99.90;;;;;;5052698;28;20222;-77
2022/01/11 04:24:22;;;;;;;13.47;10.03;;;2.90;99.90;;;;;;5015982;28;20235;-77
2022/01/11 04:26:52;;;;;;;12.97;9.70;;;2.80;99.90;;;;;;5036764;28;20678;-77
2022/01/11 04:29:20;;;;;;;17.57;11.67;;;2.80;99.90;;;;;;5028242;28;20193;-78
2022/01/11 04:31:47;;;;;;;18.07;13.17;;;2.70;99.90;;;;;;5033537;28;20223;-77
2022/01/11 04:34:21;;;;;;;17.57;12.67;;;2.60;99.90;;;;;;5033914;28;20200;-77
2022/01/11 04:36:48;;;;;;;17.77;10.77;;;2.40;99.90;;;;;;5033783;28;20206;-77
2022/01/11 04:39:16;;;;;;;16.97;11.13;;;2.30;99.90;;;;;;5032956;28;20217;-77
2022/01/11 04:41:44;;;;;;;15.13;11.17;;;2.20;99.90;;;;;;5033860;28;20220;-77
2022/01/11 04:44:11;;;;;;;23.00;14.80;;;1.90;99.90;;;;;;5033127;28;20198;-77
2022/01/11 04:46:40;;;;;;;23.40;16.00;;;1.60;99.90;;;;;;5033549;28;20203;-77
2022/01/11 04:49:08;;;;;;;27.27;17.83;;;1.50;99.90;;;;;;5032755;28;20201;-77
2022/01/11 04:51:37;;;;;;;22.37;15.60;;;1.50;99.90;;;;;;5033231;28;20220;-77
2022/01/11 04:54:07;;;;;;;28.00;17.40;;;1.60;99.90;;;;;;5033386;28;20195;-77
2022/01/11 04:56:34;;;;;;;26.53;17.60;;;1.70;99.90;;;;;;5038244;28;20556;-77
2022/01/11 04:59:02;;;;;;;28.30;17.47;;;1.70;99.90;;;;;;5053185;28;20225;-77
2022/01/11 05:01:30;;;;;;;19.77;14.50;;;1.60;99.90;;;;;;5035363;28;20219;-77
2022/01/11 05:03:58;;;;;;;25.83;17.27;;;1.40;99.90;;;;;;5032322;28;20203;-77
2022/01/11 05:06:25;;;;;;;23.97;17.10;;;1.20;99.90;;;;;;5030832;28;20203;-77
2022/01/11 05:08:54;;;;;;;25.60;18.00;;;1.10;99.90;;;;;;5023981;28;20195;-77
2022/01/11 05:11:22;;;;;;;26.00;17.80;;;1.20;99.90;;;;;;5025974;28;20211;-77
2022/01/11 05:13:50;;;;;;;21.07;13.80;;;1.10;99.90;;;;;;5031980;28;20200;-77
2022/01/11 05:16:36;;;;;;;22.83;15.63;;;1.30;99.90;;;;;;5031893;28;20195;-77
2022/01/11 05:19:12;;;;;;;28.30;17.03;;;1.50;99.90;;;;;;5022703;28;20206;-77
2022/01/11 05:21:40;;;;;;;26.90;17.33;;;1.50;99.90;;;;;;5020887;28;20214;-77
2022/01/11 05:24:10;;;;;;;27.53;19.10;;;1.10;99.90;;;;;;5024454;28;20203;-77
2022/01/11 05:26:38;;;;;;;28.17;17.87;;;1.00;99.90;;;;;;5030205;28;20195;-77
2022/01/11 05:29:05;;;;;;;30.67;19.97;;;1.00;99.90;;;;;;5028720;28;20196;-77
2022/01/11 05:31:34;;;;;;;28.43;19.60;;;1.00;99.90;;;;;;5031385;28;20222;-77
2022/01/11 05:34:03;;;;;;;27.70;19.17;;;0.90;99.90;;;;;;5027713;28;20203;-77
2022/01/11 05:36:30;;;;;;;26.90;18.87;;;0.90;99.90;;;;;;5025261;28;20202;-77
2022/01/11 05:38:58;;;;;;;27.23;18.53;;;1.00;99.90;;;;;;5033802;28;20218;-77
2022/01/11 05:41:27;;;;;;;25.97;18.03;;;0.90;99.90;;;;;;5027272;28;20750;-78
2022/01/11 05:48:11;;;;;;;27.20;17.37;;;1.10;99.90;;;;;;5032842;28;20162;-78
2022/01/11 05:50:43;;;;;;;25.70;18.73;;;1.10;99.90;;;;;;5028477;28;20683;-78
2022/01/11 05:53:11;;;;;;;27.67;18.00;;;0.90;99.90;;;;;;5025810;28;20274;-78
2022/01/11 05:55:39;;;;;;;26.23;18.10;;;1.00;99.90;;;;;;5030195;28;20202;-78
2022/01/11 05:58:08;;;;;;;28.40;17.73;;;1.20;99.90;;;;;;5026138;28;20203;-78
2022/01/11 06:00:35;;;;;;;24.17;17.77;;;1.30;99.90;;;;;;5039155;28;20698;-78
2022/01/11 06:03:03;;;;;;;24.20;17.67;;;1.30;99.90;;;;;;5028809;28;20660;-78
2022/01/11 06:05:43;;;;;;;24.80;17.20;;;1.40;99.90;;;;;;5046634;28;20198;-78
2022/01/11 06:08:16;;;;;;;24.73;14.93;;;1.30;99.90;;;;;;5030531;28;20191;-78
2022/01/11 06:10:46;;;;;;;22.00;14.97;;;1.00;99.90;;;;;;5028500;28;20223;-78
2022/01/11 06:13:15;;;;;;;24.13;17.03;;;1.00;99.90;;;;;;5029994;28;20203;-78
2022/01/11 06:16:25;;;;;;;22.97;16.53;;;1.40;99.90;;;;;;5025144;28;20576;-78
2022/01/11 06:18:54;;;;;;;26.47;16.30;;;1.50;99.90;;;;;;5030478;28;20585;-78
2022/01/11 06:21:46;;;;;;;21.07;15.40;;;1.50;99.90;;;;;;5029951;28;20228;-78
2022/01/11 06:24:14;;;;;;;25.00;16.37;;;1.10;99.90;;;;;;5031977;28;20195;-78
2022/01/11 06:26:42;;;;;;;24.93;17.30;;;1.10;99.90;;;;;;5030493;28;20199;-78
2022/01/11 06:29:11;;;;;;;27.80;17.13;;;1.00;99.90;;;;;;5030622;28;20192;-78
2022/01/11 06:31:39;;;;;;;26.47;17.50;;;1.00;99.90;;;;;;5031431;28;20215;-78
2022/01/11 06:34:06;;;;;;;22.97;16.27;;;0.90;99.90;;;;;;5039214;28;20202;-77
2022/01/11 06:36:34;;;;;;;25.67;17.63;;;0.80;99.90;;;;;;5030168;28;20202;-78
2022/01/11 06:39:02;;;;;;;24.03;16.07;;;0.80;99.90;;;;;;5025766;28;20218;-78
2022/01/11 06:41:32;;;;;;;24.17;17.53;;;0.80;99.90;;;;;;5038581;28;20226;-78
2022/01/11 06:44:05;;;;;;;26.10;16.63;;;0.80;99.90;;;;;;5025136;28;20199;-78
2022/01/11 06:46:34;;;;;;;23.00;16.60;;;0.70;99.90;;;;;;5030935;28;20191;-78
2022/01/11 06:49:04;;;;;;;20.83;15.37;;;0.70;99.90;;;;;;5029634;28;20586;-79
2022/01/11 06:52:24;;;;;;;26.53;15.77;;;0.70;99.90;;;;;;5028775;28;20218;-78
2022/01/11 06:54:53;;;;;;;21.60;15.17;;;0.60;99.90;;;;;;5030539;28;20199;-77
2022/01/11 06:57:21;;;;;;;24.70;16.20;;;0.50;99.90;;;;;;5029326;28;20192;-78
2022/01/11 06:59:50;;;;;;;25.77;16.57;;;0.60;99.90;;;;;;5021347;28;20215;-78
2022/01/11 07:02:23;;;;;;;25.60;15.87;;;0.50;99.90;;;;;;5029016;28;20544;-80
2022/01/11 07:05:10;;;;;;;21.97;14.97;;;0.50;99.90;;;;;;5004364;28;20214;-77
2022/01/11 07:07:50;;;;;;;25.53;16.07;;;0.50;99.90;;;;;;5029630;28;20195;-77
2022/01/11 07:10:19;;;;;;;21.80;15.23;;;0.50;99.90;;;;;;5030910;28;20215;-77
2022/01/11 07:12:48;;;;;;;24.73;15.97;;;0.40;99.90;;;;;;5030694;28;20203;-77
2022/01/11 07:15:29;;;;;;;22.37;15.60;;;0.60;99.90;;;;;;5028598;28;20199;-78
2022/01/11 07:17:58;;;;;;;25.83;15.50;;;0.60;99.90;;;;;;5037873;28;20199;-78
2022/01/11 07:20:26;;;;;;;20.30;15.13;;;0.60;99.90;;;;;;5044041;28;20699;-78
2022/01/11 07:22:54;;;;;;;22.30;15.13;;;0.70;99.90;;;;;;5029901;28;20191;-78
2022/01/11 07:25:22;;;;;;;25.63;16.33;;;1.00;99.90;;;;;;5029926;28;20199;-78
2022/01/11 07:27:54;;;;;;;19.70;15.17;;;1.00;99.90;;;;;;5025783;28;20191;-79
2022/01/11 07:30:26;;;;;;;22.67;16.17;;;1.10;99.90;;;;;;5030493;28;20218;-78
2022/01/11 07:33:06;;;;;;;26.47;16.77;;;1.10;99.90;;;;;;5030123;28;20206;-75
2022/01/11 07:35:42;;;;;;;21.77;16.27;;;1.00;99.90;;;;;;5029753;28;20531;-76
2022/01/11 07:38:09;;;;;;;25.87;18.00;;;1.00;99.90;;;;;;5025290;28;20194;-76
2022/01/11 07:40:38;;;;;;;26.03;16.40;;;1.10;99.90;;;;;;5041590;28;20241;-76
2022/01/11 07:43:17;;;;;;;22.47;16.50;;;1.20;99.90;;;;;;5034681;28;20215;-76
2022/01/11 07:45:53;;;;;;;25.53;17.10;;;1.20;99.90;;;;;;5032029;28;20665;-75
2022/01/11 07:48:29;;;;;;;24.27;17.50;;;1.10;99.90;;;;;;5030982;28;20207;-75
2022/01/11 07:51:03;;;;;;;26.63;17.13;;;1.00;99.90;;;;;;5043388;28;20237;-75
2022/01/11 07:53:33;;;;;;;25.00;17.23;;;0.80;99.90;;;;;;5030216;28;20270;-76
2022/01/11 07:56:06;;;;;;;28.23;19.17;;;0.70;99.90;;;;;;5030593;28;20199;-75
2022/01/11 07:58:47;;;;;;;22.03;15.27;;;0.50;99.90;;;;;;5029567;28;20195;-75
2022/01/11 08:01:18;;;;;;;21.83;15.53;;;0.40;99.90;;;;;;5020896;28;20228;-75
2022/01/11 08:03:48;;;;;;;24.53;16.20;;;0.30;99.90;;;;;;5040370;28;20195;-75
2022/01/11 08:06:21;;;;;;;27.93;18.13;;;0.40;99.90;;;;;;5029884;28;20202;-75
2022/01/11 08:08:56;;;;;;;25.13;16.73;;;0.50;99.90;;;;;;5026624;28;20648;-75
2022/01/11 08:11:24;;;;;;;26.77;17.53;;;0.50;99.90;;;;;;5033717;28;20214;-75
2022/01/11 08:13:51;;;;;;;19.93;14.80;;;0.40;99.90;;;;;;5033600;28;20195;-75
2022/01/11 08:16:31;;;;;;;22.93;15.07;;;0.50;99.90;;;;;;5028834;28;20198;-74
2022/01/11 08:19:00;;;;;;;27.67;18.33;;;0.60;99.90;;;;;;5024962;28;20202;-74
2022/01/11 08:21:28;;;;;;;26.70;17.97;;;0.60;99.90;;;;;;5033045;28;20226;-74
2022/01/11 08:23:55;;;;;;;24.17;17.20;;;0.50;99.90;;;;;;5029713;28;20206;-74
2022/01/11 08:26:24;;;;;;;29.17;17.70;;;0.50;99.90;;;;;;5045766;28;20628;-74
2022/01/11 08:28:51;;;;;;;24.13;15.60;;;0.60;99.90;;;;;;5021897;28;20853;-74
2022/01/11 08:31:20;;;;;;;22.97;16.10;;;0.80;99.90;;;;;;5032530;28;20211;-74
2022/01/11 08:33:52;;;;;;;26.23;16.73;;;0.90;99.90;;;;;;5033055;28;20198;-74
2022/01/11 08:36:21;;;;;;;29.40;18.23;;;1.10;99.90;;;;;;5033317;28;20191;-73
2022/01/11 08:38:48;;;;;;;25.00;18.57;;;1.20;99.90;;;;;;5025402;28;20210;-73
2022/01/11 08:41:19;;;;;;;28.33;19.20;;;1.20;99.90;;;;;;5033164;28;20226;-74
2022/01/11 08:44:10;;;;;;;24.33;18.30;;;1.10;99.90;;;;;;5032982;28;20544;-74
2022/01/11 08:46:40;;;;;;;28.60;17.80;;;1.20;99.90;;;;;;5033257;28;20325;-74
2022/01/11 08:49:13;;;;;;;26.23;17.70;;;1.30;99.90;;;;;;5021985;28;20218;-74
2022/01/11 08:51:43;;;;;;;24.40;18.43;;;1.40;99.90;;;;;;5046093;28;20219;-74
2022/01/11 08:54:12;;;;;;;25.40;17.87;;;1.40;99.90;;;;;;5030854;28;20210;-74
2022/01/11 08:56:42;;;;;;;25.43;18.97;;;1.60;99.90;;;;;;5031211;28;20199;-74
2022/01/11 08:59:12;;;;;;;27.20;19.53;;;1.70;99.90;;;;;;5031049;28;20195;-74
2022/01/11 09:01:40;;;;;;;20.73;14.53;;;1.70;99.90;;;;;;5030701;28;20679;-74
2022/01/11 09:04:11;;;;;;;26.30;17.63;;;1.70;99.90;;;;;;5040233;28;20548;-74
2022/01/11 09:06:53;;;;;;;29.30;21.63;;;1.70;99.90;;;;;;5030234;28;20198;-74
2022/01/11 09:09:21;;;;;;;30.00;19.83;;;1.90;99.90;;;;;;5031228;28;20214;-74
2022/01/11 09:12:13;;;;;;;29.57;19.90;;;1.90;99.90;;;;;;5030471;28;20219;-74
2022/01/11 09:14:43;;;;;;;27.87;19.33;;;1.90;99.90;;;;;;5029761;28;20203;-74
2022/01/11 09:17:12;;;;;;;25.83;18.70;;;2.00;99.90;;;;;;5027467;28;20217;-75
2022/01/11 09:19:46;;;;;;;31.83;19.70;;;2.10;99.90;;;;;;5028463;28;20216;-74
2022/01/11 09:22:19;;;;;;;31.07;20.83;;;2.20;99.90;;;;;;5029966;28;20198;-74
2022/01/11 09:24:47;;;;;;;27.77;19.20;;;2.30;99.90;;;;;;5030171;28;20192;-74
2022/01/11 09:27:18;;;;;;;30.83;19.17;;;2.50;99.90;;;;;;5030442;28;20208;-74
2022/01/11 09:29:47;;;;;;;25.90;18.50;;;2.40;99.90;;;;;;5029250;28;20223;-74
2022/01/11 09:32:16;;;;;;;25.73;18.43;;;2.40;99.90;;;;;;5027340;28;20196;-74
2022/01/11 09:34:45;;;;;;;29.37;18.60;;;2.80;99.90;;;;;;5035877;28;20203;-75
2022/01/11 09:37:23;;;;;;;27.30;18.37;;;2.70;99.90;;;;;;5027582;28;20205;-74
2022/01/11 09:39:51;;;;;;;22.77;16.83;;;2.90;99.90;;;;;;5023248;28;20219;-75
2022/01/11 09:42:22;;;;;;;22.40;16.13;;;2.90;99.90;;;;;;5027179;28;20217;-75
2022/01/11 09:44:52;;;;;;;23.47;16.60;;;2.90;99.90;;;;;;5041297;28;20200;-76
2022/01/11 09:47:19;;;;;;;25.27;17.00;;;3.00;99.90;;;;;;5029102;28;20214;-75
2022/01/11 09:49:49;;;;;;;22.03;15.63;;;2.80;99.90;;;;;;5027515;28;20238;-75
2022/01/11 09:52:32;;;;;;;24.17;17.30;;;3.00;99.90;;;;;;5027574;28;20232;-75
2022/01/11 09:55:00;;;;;;;24.67;17.77;;;3.00;99.90;;;;;;5030188;28;20197;-74
2022/01/11 09:57:30;;;;;;;25.50;17.33;;;3.20;99.90;;;;;;5029418;28;20684;-75
2022/01/11 10:00:16;;;;;;;28.63;18.37;;;3.40;99.90;;;;;;5028242;28;20212;-74
2022/01/11 10:02:51;;;;;;;26.77;18.93;;;3.50;99.90;;;;;;5029913;28;20644;-74
2022/01/11 10:05:46;;;;;;;25.07;18.67;;;3.70;99.90;;;;;;5032882;28;20218;-74
2022/01/11 10:08:25;;;;;;;28.17;19.60;;;3.80;99.90;;;;;;5029896;28;20209;-74
2022/01/11 10:10:54;;;;;;;23.47;18.60;;;3.80;99.90;;;;;;5029044;28;20211;-74
2022/01/11 10:13:31;;;;;;;32.30;21.50;;;3.90;99.90;;;;;;5029996;28;20199;-74
2022/01/11 10:16:20;;;;;;;26.07;17.87;;;4.00;99.90;;;;;;5025325;28;20209;-74
2022/01/11 10:18:48;;;;;;;24.27;17.50;;;4.10;99.90;;;;;;5029849;28;20191;-74
2022/01/11 10:21:36;;;;;;;23.07;15.77;;;4.20;99.90;;;;;;5029620;28;20606;-75
2022/01/11 10:24:25;;;;;;;23.47;16.90;;;4.50;99.90;;;;;;5029764;28;20203;-75
2022/01/11 10:26:56;;;;;;;22.23;16.43;;;4.60;99.90;;;;;;5029251;28;20209;-74
2022/01/11 10:29:32;;;;;;;20.03;15.50;;;4.70;99.90;;;;;;5029387;28;20198;-74
2022/01/11 10:32:30;;;;;;;24.07;16.43;;;4.70;99.90;;;;;;5029490;28;20195;-75
2022/01/11 10:35:04;;;;;;;26.60;17.13;;;4.60;99.90;;;;;;5028078;28;20200;-74
2022/01/11 10:37:36;;;;;;;25.33;17.07;;;5.10;99.90;;;;;;5028494;28;20274;-75
2022/01/11 10:40:13;;;;;;;28.33;16.33;;;5.50;99.90;;;;;;5022836;28;20218;-74
2022/01/11 10:42:45;;;;;;;25.53;15.17;;;5.90;99.90;;;;;;5028496;28;20220;-74
2022/01/11 10:45:27;;;;;;;25.17;17.17;;;6.30;99.90;;;;;;5027678;28;20203;-75
2022/01/11 10:47:58;;;;;;;24.87;16.07;;;6.50;99.90;;;;;;5035288;28;20196;-76
2022/01/11 10:50:35;;;;;;;20.50;14.47;;;6.40;99.90;;;;;;5030974;28;20217;-75
2022/01/11 10:53:38;;;;;;;;;;;;;;;;;;;;;
2022/01/11 10:56:49;;;;;;;21.33;13.57;;;6.90;99.90;;;;;;5024597;28;20205;-76
2022/01/11 10:59:27;;;;;;;;;;;;;;;;;;;;;
2022/01/11 11:01:57;;;;;;;20.00;14.37;;;7.80;99.50;;;;;;4984700;28;20257;-75
2022/01/11 11:04:31;;;;;;;19.90;14.27;;;8.00;99.10;;;;;;4977157;28;20207;-76
2022/01/11 11:07:11;;;;;;;22.90;16.23;;;8.40;98.40;;;;;;5023323;28;20197;-75
2022/01/11 11:09:46;;;;;;;21.63;16.53;;;8.60;97.30;;;;;;5026644;28;20204;-75
2022/01/11 11:12:17;;;;;;;26.20;18.33;;;8.90;96.30;;;;;;5032409;28;20198;-76
2022/01/11 11:15:06;;;;;;;25.17;18.13;;;9.30;95.50;;;;;;5025171;28;20195;-75
2022/01/11 11:17:41;;;;;;;22.53;17.20;;;9.60;94.50;;;;;;5028182;28;20206;-78
2022/01/11 11:20:19;;;;;;;23.67;16.43;;;9.60;94.60;;;;;;5024173;28;20218;-74
2022/01/11 11:22:51;;;;;;;22.93;16.27;;;9.90;93.90;;;;;;5034502;28;20227;-74
2022/01/11 11:25:26;;;;;;;18.73;14.67;;;9.70;93.70;;;;;;5024561;28;20792;-75
2022/01/11 11:27:55;;;;;;;19.70;15.57;;;9.60;94.00;;;;;;5033973;28;20198;-75
2022/01/11 11:30:23;;;;;;;22.47;15.23;;;9.90;94.60;;;;;;5024927;28;20550;-75
2022/01/11 11:32:53;;;;;;;19.07;14.97;;;10.90;92.70;;;;;;5027917;28;20227;-75
2022/01/11 11:35:21;;;;;;;21.70;15.27;;;10.80;93.00;;;;;;5029029;28;20206;-75
2022/01/11 11:37:55;;;;;;;19.27;15.13;;;10.30;92.80;;;;;;5030622;28;20211;-77
2022/01/11 11:40:26;;;;;;;20.07;14.43;;;10.00;93.10;;;;;;5033393;28;20222;-75
2022/01/11 11:42:59;;;;;;;18.70;14.83;;;10.70;92.50;;;;;;5033410;28;20227;-75
2022/01/11 11:45:32;;;;;;;21.27;15.93;;;11.80;90.10;;;;;;5033327;28;20191;-75
2022/01/11 11:48:12;;;;;;;24.23;15.97;;;11.90;90.40;;;;;;5039974;28;20202;-75
2022/01/11 11:50:49;;;;;;;20.10;16.23;;;12.40;88.20;;;;;;5032875;28;20610;-75
2022/01/11 11:53:26;;;;;;;20.87;15.97;;;13.00;85.10;;;;;;5033560;28;20198;-75
2022/01/11 11:56:17;;;;;;;23.67;17.60;;;12.30;86.20;;;;;;5034727;28;20222;-75
2022/01/11 11:58:51;;;;;;;21.48;15.65;;;12.80;83.70;;;;;;5033637;28;20715;-76
2022/01/11 12:01:46;;;;;;;19.83;15.27;;;12.90;81.50;;;;;;5032565;28;20214;-76
2022/01/11 12:04:16;;;;;;;18.00;14.73;;;13.20;81.80;;;;;;4998541;28;20203;-76
2022/01/11 12:06:44;;;;;;;17.90;14.95;;;13.60;79.60;;;;;;5032789;28;20199;-77
2022/01/11 12:09:14;;;;;;;18.88;14.27;;;14.10;76.70;;;;;;5033407;28;20214;-76
2022/01/11 12:11:59;;;;;;;18.35;14.48;;;14.90;72.80;;;;;;5030638;28;20223;-76
2022/01/11 12:14:32;;;;;;;20.77;14.98;;;14.90;71.70;;;;;;5032470;28;20199;-75
2022/01/11 12:17:24;;;;;;;19.30;13.85;;;14.00;70.40;;;;;;5033359;28;20202;-76
2022/01/11 12:19:53;;;;;;;17.20;14.00;;;12.50;74.70;;;;;;5032950;28;20214;-75
2022/01/11 12:22:28;;;;;;;14.50;12.02;;;13.00;78.40;;;;;;5033868;28;20215;-75
2022/01/11 12:25:02;;;;;;;20.65;14.23;;;12.60;75.80;;;;;;5032918;28;20680;-76
2022/01/11 12:28:00;;;;;;;18.42;14.65;;;14.10;75.80;;;;;;5033165;28;20194;-75
2022/01/11 12:30:31;;;;;;;18.20;13.20;;;13.00;74.30;;;;;;5034129;28;20237;-75
2022/01/11 12:33:11;;;;;;;19.73;13.27;;;13.80;76.50;;;;;;5032554;28;20687;-76
2022/01/11 12:35:57;;;;;;;15.40;10.25;;;13.10;75.70;;;;;;5027025;28;20198;-76
2022/01/11 12:38:26;;;;;;;12.35;8.02;;;13.70;75.20;;;;;;5032712;28;20199;-75
2022/01/11 12:40:53;;;;;;;13.93;8.52;;;12.80;77.10;;;;;;5031823;28;20697;-75
2022/01/11 12:43:40;;;;;;;12.23;9.13;;;13.70;73.60;;;;;;5032762;28;20215;-75
2022/01/11 12:46:10;;;;;;;8.45;6.60;;;13.20;74.50;;;;;;5030794;28;20192;-75
2022/01/11 12:49:08;;;;;;;8.10;5.43;;;13.50;72.40;;;;;;5030516;28;20206;-75
2022/01/11 12:51:48;;;;;;;9.10;5.82;;;13.50;73.20;;;;;;5031771;28;20215;-74
2022/01/11 12:54:32;;;;;;;7.55;5.32;;;13.80;74.60;;;;;;5025647;28;20527;-75
2022/01/11 12:57:09;;;;;;;6.57;5.60;;;14.50;70.10;;;;;;5024988;28;20561;-75
2022/01/11 12:59:39;;;;;;;7.68;5.50;;;13.90;71.60;;;;;;5031852;28;20206;-75
2022/01/11 13:02:13;;;;;;;8.80;5.50;;;13.20;72.10;;;;;;5031667;28;20677;-75
2022/01/11 13:04:48;;;;;;;7.90;5.18;;;13.00;73.50;;;;;;5037027;28;20201;-76
2022/01/11 13:07:21;;;;;;;9.63;4.70;;;12.80;74.70;;;;;;5030780;28;20206;-75
2022/01/11 13:10:03;;;;;;;9.32;4.97;;;12.30;74.80;;;;;;5020769;28;20233;-75
2022/01/11 13:12:52;;;;;;;8.10;5.23;;;11.60;77.90;;;;;;5028935;28;20199;-76
2022/01/11 13:15:32;;;;;;;8.98;5.15;;;12.90;74.30;;;;;;5034489;28;20190;-75
2022/01/11 13:18:07;;;;;;;7.57;5.32;;;13.30;72.50;;;;;;5030723;28;20194;-75